Time;durP1;ratioP1;P1;durP2;ratioP2;P2;SDS_P1;SDS_P2;PMS_P1;PMS_P2;Temp;Humidity;BMP_temperature;BMP_pressure;BME280_temperature;BME280_humidity;BME280_pressure;Samples;Min_cycle;Max_cycle;Signal;HPM_P1;HPM_P2
2022/11/25 00:01:05;;;;;;;20.83;4.07;;;;;;;;;;4833253;29;20107;-79
2022/11/25 00:03:31;;;;;;;18.15;3.45;;;;;;;;;;4832241;29;20057;-80
2022/11/25 00:06:06;;;;;;;19.35;3.13;;;;;;;;;;4835323;29;20059;-80
2022/11/25 00:08:32;;;;;;;14.27;3.20;;;;;;;;;;4818849;29;20457;-81
2022/11/25 00:10:59;;;;;;;19.90;3.60;;;;;;;;;;4834320;29;20059;-80
2022/11/25 00:13:26;;;;;;;13.38;3.47;;;;;;;;;;4828730;29;20060;-80
2022/11/25 00:15:52;;;;;;;20.80;3.55;;;;;;;;;;4837358;29;20046;-79
2022/11/25 00:18:18;;;;;;;12.40;3.33;;;;;;;;;;4841240;29;20163;-80
2022/11/25 00:20:45;;;;;;;17.83;3.55;;;;;;;;;;4818841;29;20059;-80
2022/11/25 00:23:11;;;;;;;22.00;3.95;;;;;;;;;;4822791;29;20133;-80
2022/11/25 00:25:37;;;;;;;19.50;3.83;;;;;;;;;;4803733;29;20112;-79
2022/11/25 00:28:04;;;;;;;17.35;3.20;;;;;;;;;;4837671;29;20138;-80
2022/11/25 00:30:30;;;;;;;17.15;3.72;;;;;;;;;;4838449;29;20065;-80
2022/11/25 00:32:56;;;;;;;18.40;3.40;;;;;;;;;;4837283;29;20054;-80
2022/11/25 00:35:23;;;;;;;20.23;3.95;;;;;;;;;;4810059;29;20062;-80
2022/11/25 00:37:49;;;;;;;21.88;3.50;;;;;;;;;;4816918;29;20437;-80
2022/11/25 00:40:15;;;;;;;21.42;3.92;;;;;;;;;;4818272;29;20054;-78
2022/11/25 00:45:27;;;;;;;20.75;4.05;;;;;;;;;;4837050;29;20066;-79
2022/11/25 00:47:53;;;;;;;17.77;3.55;;;;;;;;;;4820012;29;20116;-80
2022/11/25 00:50:20;;;;;;;25.48;3.50;;;;;;;;;;4836086;29;20062;-80
2022/11/25 00:52:46;;;;;;;21.15;4.03;;;;;;;;;;4837054;29;20070;-80
2022/11/25 00:55:12;;;;;;;21.67;3.80;;;;;;;;;;4820512;29;20054;-79
2022/11/25 00:57:38;;;;;;;18.70;3.42;;;;;;;;;;4820215;29;20074;-78
2022/11/25 01:00:05;;;;;;;22.92;4.10;;;;;;;;;;4819160;29;20121;-80
2022/11/25 01:02:32;;;;;;;19.13;3.08;;;;;;;;;;4836256;29;20066;-80
2022/11/25 01:04:58;;;;;;;17.48;3.38;;;;;;;;;;4837241;29;20072;-78
2022/11/25 01:07:24;;;;;;;24.60;3.38;;;;;;;;;;4820767;29;20055;-79
2022/11/25 01:09:51;;;;;;;11.73;2.95;;;;;;;;;;4818949;29;20094;-78
2022/11/25 01:12:17;;;;;;;17.90;3.60;;;;;;;;;;4836551;29;20066;-78
2022/11/25 01:14:43;;;;;;;18.67;3.70;;;;;;;;;;4834854;29;20573;-78
2022/11/25 01:17:10;;;;;;;24.52;4.60;;;;;;;;;;4835006;29;20059;-78
2022/11/25 01:19:40;;;;;;;25.80;3.90;;;;;;;;;;4836841;29;20066;-78
2022/11/25 01:22:07;;;;;;;13.02;3.83;;;;;;;;;;4819346;29;20065;-78
2022/11/25 01:24:33;;;;;;;22.85;3.80;;;;;;;;;;4833950;29;20068;-78
2022/11/25 01:27:00;;;;;;;27.83;4.18;;;;;;;;;;4835749;29;20090;-78
2022/11/25 01:29:26;;;;;;;19.23;3.58;;;;;;;;;;4836833;29;20052;-80
2022/11/25 01:31:53;;;;;;;8.48;2.42;;;;;;;;;;4835225;29;20066;-80
2022/11/25 01:34:21;;;;;;;17.02;3.08;;;;;;;;;;4819254;29;20059;-78
2022/11/25 01:36:48;;;;;;;17.35;3.33;;;;;;;;;;4822251;29;20069;-79
2022/11/25 01:39:16;;;;;;;16.33;3.70;;;;;;;;;;4817640;29;20150;-77
2022/11/25 01:41:43;;;;;;;16.67;3.10;;;;;;;;;;4816719;29;20119;-79
2022/11/25 01:44:13;;;;;;;18.83;3.38;;;;;;;;;;4835341;29;20062;-80
2022/11/25 01:46:42;;;;;;;22.73;3.60;;;;;;;;;;4834542;29;20102;-79
2022/11/25 01:49:11;;;;;;;17.23;3.83;;;;;;;;;;4816238;29;20162;-80
2022/11/25 01:51:57;;;;;;;20.42;3.10;;;;;;;;;;4818951;29;20062;-79
2022/11/25 01:54:25;;;;;;;13.70;3.35;;;;;;;;;;4835983;29;20035;-79
2022/11/25 01:56:54;;;;;;;16.70;3.55;;;;;;;;;;4834355;29;20111;-79
2022/11/25 01:59:21;;;;;;;16.58;3.40;;;;;;;;;;4815540;29;20065;-78
2022/11/25 02:01:48;;;;;;;17.77;3.45;;;;;;;;;;4825397;29;20087;-78
2022/11/25 02:04:15;;;;;;;21.23;3.83;;;;;;;;;;4836798;29;20046;-78
2022/11/25 02:06:46;;;;;;;17.88;3.58;;;;;;;;;;4818415;29;20062;-78
2022/11/25 02:09:13;;;;;;;21.25;3.92;;;;;;;;;;4834125;29;20053;-79
2022/11/25 02:11:40;;;;;;;30.65;4.35;;;;;;;;;;4838403;29;20054;-78
2022/11/25 02:14:07;;;;;;;18.95;4.25;;;;;;;;;;4837312;29;20038;-79
2022/11/25 02:16:33;;;;;;;22.33;4.50;;;;;;;;;;4821907;29;20062;-78
2022/11/25 02:19:02;;;;;;;20.98;3.50;;;;;;;;;;4836576;29;20054;-79
2022/11/25 02:21:42;;;;;;;19.13;3.55;;;;;;;;;;4821800;29;20081;-79
2022/11/25 02:24:14;;;;;;;14.98;3.85;;;;;;;;;;4822058;29;20082;-79
2022/11/25 02:26:40;;;;;;;19.25;4.30;;;;;;;;;;4838330;29;20058;-79
2022/11/25 02:29:06;;;;;;;18.65;4.07;;;;;;;;;;4836289;29;20066;-79
2022/11/25 02:31:33;;;;;;;24.80;4.57;;;;;;;;;;4837670;29;20093;-79
2022/11/25 02:33:59;;;;;;;20.25;3.75;;;;;;;;;;4821673;29;20119;-79
2022/11/25 02:36:26;;;;;;;21.25;3.75;;;;;;;;;;4837925;29;20052;-79
2022/11/25 02:38:56;;;;;;;20.20;4.10;;;;;;;;;;4821899;29;20893;-79
2022/11/25 02:41:33;;;;;;;29.25;4.63;;;;;;;;;;4808939;29;20163;-78
2022/11/25 02:44:00;;;;;;;18.50;3.58;;;;;;;;;;4822200;29;20064;-78
2022/11/25 02:46:27;;;;;;;17.95;3.72;;;;;;;;;;4836344;29;20054;-78
2022/11/25 02:48:55;;;;;;;19.42;4.00;;;;;;;;;;4837800;29;20059;-79
2022/11/25 02:51:38;;;;;;;22.13;4.85;;;;;;;;;;4825001;29;20054;-78
2022/11/25 02:54:05;;;;;;;27.50;4.30;;;;;;;;;;4821726;29;20118;-78
2022/11/25 02:56:32;;;;;;;22.45;4.00;;;;;;;;;;4823355;29;20073;-79
2022/11/25 02:58:59;;;;;;;15.95;3.35;;;;;;;;;;4823153;29;20825;-78
2022/11/25 03:01:26;;;;;;;17.48;3.53;;;;;;;;;;4821013;29;20055;-78
2022/11/25 03:03:53;;;;;;;20.80;3.58;;;;;;;;;;4822121;29;20094;-78
2022/11/25 03:06:19;;;;;;;20.65;4.30;;;;;;;;;;4839445;29;20065;-78
2022/11/25 03:08:46;;;;;;;17.10;3.83;;;;;;;;;;4838861;29;20070;-79
2022/11/25 03:11:12;;;;;;;26.90;4.18;;;;;;;;;;4824487;29;20107;-79
2022/11/25 03:13:38;;;;;;;17.73;3.38;;;;;;;;;;4849713;29;20054;-79
2022/11/25 03:16:05;;;;;;;18.90;3.33;;;;;;;;;;4854669;29;20139;-78
2022/11/25 03:18:31;;;;;;;29.70;4.88;;;;;;;;;;4836186;29;20495;-79
2022/11/25 03:20:58;;;;;;;20.13;4.15;;;;;;;;;;4818822;29;20054;-79
2022/11/25 03:23:25;;;;;;;17.60;4.18;;;;;;;;;;4835217;29;20570;-79
2022/11/25 03:25:51;;;;;;;24.08;4.47;;;;;;;;;;4834923;29;20766;-79
2022/11/25 03:28:17;;;;;;;22.52;4.38;;;;;;;;;;4835374;29;20082;-78
2022/11/25 03:30:44;;;;;;;12.25;3.67;;;;;;;;;;4837292;29;20054;-79
2022/11/25 03:33:10;;;;;;;19.20;4.25;;;;;;;;;;4825720;29;20456;-78
2022/11/25 03:35:37;;;;;;;22.23;3.92;;;;;;;;;;4820585;29;20106;-78
2022/11/25 03:38:03;;;;;;;22.13;4.10;;;;;;;;;;4820715;29;20892;-78
2022/11/25 03:40:29;;;;;;;21.80;4.05;;;;;;;;;;4817558;29;20066;-78
2022/11/25 03:42:56;;;;;;;18.38;4.15;;;;;;;;;;4833678;29;20058;-79
2022/11/25 03:45:22;;;;;;;22.23;3.97;;;;;;;;;;4819531;29;20069;-79
2022/11/25 03:47:49;;;;;;;21.75;4.18;;;;;;;;;;4819033;29;20864;-80
2022/11/25 03:50:15;;;;;;;17.63;4.15;;;;;;;;;;4816469;29;20566;-78
2022/11/25 03:52:42;;;;;;;22.63;4.45;;;;;;;;;;4818183;29;20529;-79
2022/11/25 03:55:08;;;;;;;16.52;4.35;;;;;;;;;;4819257;29;20055;-78
2022/11/25 03:57:34;;;;;;;22.77;3.83;;;;;;;;;;4835869;29;20081;-79
2022/11/25 04:00:01;;;;;;;16.23;4.03;;;;;;;;;;4818924;29;20567;-77
2022/11/25 04:02:28;;;;;;;15.65;3.80;;;;;;;;;;4821998;29;20082;-80
2022/11/25 04:04:54;;;;;;;17.33;3.58;;;;;;;;;;4837988;29;20085;-78
2022/11/25 04:07:21;;;;;;;23.55;3.55;;;;;;;;;;4837637;29;20077;-79
2022/11/25 04:09:47;;;;;;;17.85;3.80;;;;;;;;;;4837476;29;20074;-79
2022/11/25 04:14:59;;;;;;;13.80;3.00;;;;;;;;;;4837231;29;20150;-79
2022/11/25 04:17:25;;;;;;;13.55;2.92;;;;;;;;;;4822895;29;20067;-77
2022/11/25 04:19:51;;;;;;;17.73;3.13;;;;;;;;;;4820825;29;20066;-78
2022/11/25 04:22:17;;;;;;;10.40;2.70;;;;;;;;;;4838037;29;20054;-78
2022/11/25 04:24:44;;;;;;;10.13;2.42;;;;;;;;;;4824910;29;20058;-78
2022/11/25 04:27:10;;;;;;;11.77;2.28;;;;;;;;;;4823616;29;20066;-78
2022/11/25 04:29:36;;;;;;;12.32;2.15;;;;;;;;;;4835623;29;20046;-79
2022/11/25 04:32:03;;;;;;;10.48;2.20;;;;;;;;;;4823481;29;20062;-80
2022/11/25 04:34:29;;;;;;;9.50;1.67;;;;;;;;;;4837604;29;21492;-80
2022/11/25 04:36:55;;;;;;;9.52;1.90;;;;;;;;;;4838572;29;20489;-79
2022/11/25 04:39:21;;;;;;;9.65;1.60;;;;;;;;;;4819970;29;20058;-77
2022/11/25 04:41:48;;;;;;;6.07;1.80;;;;;;;;;;4819503;29;20061;-78
2022/11/25 04:44:14;;;;;;;13.55;2.05;;;;;;;;;;4838075;29;20054;-77
2022/11/25 04:46:41;;;;;;;8.43;1.77;;;;;;;;;;4822252;29;20098;-78
2022/11/25 04:49:08;;;;;;;8.35;1.80;;;;;;;;;;4837823;29;20059;-80
2022/11/25 04:51:35;;;;;;;7.95;1.77;;;;;;;;;;4821013;29;20119;-77
2022/11/25 04:54:01;;;;;;;8.15;1.90;;;;;;;;;;4823085;29;20149;-78
2022/11/25 04:56:27;;;;;;;15.40;2.50;;;;;;;;;;4822532;29;21023;-79
2022/11/25 05:01:38;;;;;;;7.70;1.65;;;;;;;;;;4837443;29;20157;-80
2022/11/25 05:04:05;;;;;;;8.07;1.58;;;;;;;;;;4838044;29;20061;-78
2022/11/25 05:06:31;;;;;;;6.20;1.75;;;;;;;;;;4837921;29;20065;-78
2022/11/25 05:08:58;;;;;;;9.35;2.17;;;;;;;;;;4838129;29;20110;-78
2022/11/25 05:11:24;;;;;;;8.02;1.60;;;;;;;;;;4838795;29;20087;-78
2022/11/25 05:13:50;;;;;;;6.53;1.58;;;;;;;;;;4836808;29;20062;-78
2022/11/25 05:16:17;;;;;;;10.18;1.50;;;;;;;;;;4838118;29;20058;-78
2022/11/25 05:18:43;;;;;;;5.65;1.13;;;;;;;;;;4822116;29;20123;-78
2022/11/25 05:21:09;;;;;;;9.02;1.40;;;;;;;;;;4838631;29;20058;-78
2022/11/25 05:23:36;;;;;;;6.28;1.45;;;;;;;;;;4822600;29;20058;-78
2022/11/25 05:26:03;;;;;;;5.28;1.77;;;;;;;;;;4822060;29;20073;-78
2022/11/25 05:28:29;;;;;;;4.07;1.08;;;;;;;;;;4824293;29;20339;-78
2022/11/25 05:30:56;;;;;;;6.45;1.50;;;;;;;;;;4839775;29;20058;-78
2022/11/25 05:33:22;;;;;;;8.52;1.63;;;;;;;;;;4819295;29;20070;-78
2022/11/25 05:35:59;;;;;;;7.82;1.95;;;;;;;;;;4819979;29;20054;-78
2022/11/25 05:38:26;;;;;;;7.25;1.55;;;;;;;;;;4822751;29;20510;-78
2022/11/25 05:40:53;;;;;;;4.75;1.50;;;;;;;;;;4818802;29;20138;-78
2022/11/25 05:43:19;;;;;;;8.75;1.85;;;;;;;;;;4823459;29;20777;-78
2022/11/25 05:45:45;;;;;;;7.22;1.40;;;;;;;;;;4824172;29;20149;-78
2022/11/25 05:48:12;;;;;;;6.28;1.35;;;;;;;;;;4823968;29;20058;-78
2022/11/25 05:50:38;;;;;;;10.30;1.50;;;;;;;;;;4838979;29;20061;-78
2022/11/25 05:53:05;;;;;;;6.88;1.60;;;;;;;;;;4832352;29;21364;-78
2022/11/25 05:55:31;;;;;;;8.05;1.52;;;;;;;;;;4842376;29;20437;-78
2022/11/25 05:57:58;;;;;;;5.13;1.60;;;;;;;;;;4843727;29;20064;-78
2022/11/25 06:00:25;;;;;;;8.00;1.90;;;;;;;;;;4824588;29;20529;-78
2022/11/25 06:02:52;;;;;;;6.07;1.60;;;;;;;;;;4823195;29;20096;-78
2022/11/25 06:05:19;;;;;;;8.50;2.15;;;;;;;;;;4840762;29;20062;-78
2022/11/25 06:07:45;;;;;;;7.85;2.00;;;;;;;;;;4817869;29;20069;-80
2022/11/25 06:10:12;;;;;;;7.75;2.00;;;;;;;;;;4825050;29;20062;-79
2022/11/25 06:12:38;;;;;;;5.90;1.83;;;;;;;;;;4835514;29;20055;-80
2022/11/25 06:15:05;;;;;;;9.75;2.00;;;;;;;;;;4835691;29;20051;-80
2022/11/25 06:17:31;;;;;;;12.43;2.20;;;;;;;;;;4848362;29;20058;-79
2022/11/25 06:19:57;;;;;;;7.25;2.15;;;;;;;;;;4834851;29;20065;-79
2022/11/25 06:22:24;;;;;;;5.15;1.92;;;;;;;;;;4814393;29;20068;-80
2022/11/25 06:24:50;;;;;;;10.90;2.42;;;;;;;;;;4833755;29;20134;-79
2022/11/25 06:27:25;;;;;;;12.07;2.22;;;;;;;;;;4836083;29;20068;-79
2022/11/25 06:30:11;;;;;;;10.57;2.67;;;;;;;;;;4834073;29;20090;-80
2022/11/25 06:32:37;;;;;;;13.18;2.35;;;;;;;;;;4841954;29;20069;-77
2022/11/25 06:35:04;;;;;;;13.23;2.38;;;;;;;;;;4836046;29;20057;-79
2022/11/25 06:37:31;;;;;;;9.95;2.30;;;;;;;;;;4817544;29;20058;-80
2022/11/25 06:39:57;;;;;;;11.27;2.63;;;;;;;;;;4833869;29;20088;-79
2022/11/25 06:42:24;;;;;;;7.38;2.40;;;;;;;;;;4833083;29;20149;-79
2022/11/25 06:44:50;;;;;;;8.75;2.10;;;;;;;;;;4813335;29;20149;-78
2022/11/25 06:47:16;;;;;;;16.52;2.60;;;;;;;;;;4822588;29;20065;-79
2022/11/25 06:49:43;;;;;;;10.48;2.72;;;;;;;;;;4812650;29;20146;-79
2022/11/25 06:52:09;;;;;;;8.05;2.50;;;;;;;;;;4827411;29;20073;-79
2022/11/25 06:54:39;;;;;;;10.98;2.40;;;;;;;;;;4836918;29;20137;-78
2022/11/25 06:57:07;;;;;;;12.52;2.88;;;;;;;;;;4825759;29;20086;-79
2022/11/25 06:59:33;;;;;;;6.97;2.90;;;;;;;;;;4815593;29;20887;-79
2022/11/25 07:01:59;;;;;;;13.70;3.25;;;;;;;;;;4815884;29;20101;-78
2022/11/25 07:04:26;;;;;;;13.02;3.28;;;;;;;;;;4841752;29;20445;-78
2022/11/25 07:06:52;;;;;;;12.75;3.40;;;;;;;;;;4825798;29;20070;-78
2022/11/25 07:09:19;;;;;;;9.82;3.22;;;;;;;;;;4847050;29;20058;-78
2022/11/25 07:11:46;;;;;;;11.27;2.95;;;;;;;;;;4827876;29;20140;-79
2022/11/25 07:14:13;;;;;;;12.05;3.00;;;;;;;;;;4832119;29;20046;-79
2022/11/25 07:16:41;;;;;;;13.95;3.22;;;;;;;;;;4832174;29;20058;-78
2022/11/25 07:19:13;;;;;;;11.80;3.30;;;;;;;;;;4832153;29;20061;-78
2022/11/25 07:21:45;;;;;;;11.73;2.92;;;;;;;;;;4832832;29;20094;-78
2022/11/25 07:24:13;;;;;;;10.23;3.38;;;;;;;;;;4832703;29;20069;-78
2022/11/25 07:26:40;;;;;;;11.07;3.20;;;;;;;;;;4815813;29;20543;-80
2022/11/25 07:29:08;;;;;;;12.27;3.30;;;;;;;;;;4819480;29;20070;-79
2022/11/25 07:31:54;;;;;;;16.10;3.90;;;;;;;;;;4834923;29;20824;-79
2022/11/25 07:34:21;;;;;;;13.02;3.40;;;;;;;;;;4829049;29;20809;-79
2022/11/25 07:36:48;;;;;;;12.05;3.40;;;;;;;;;;4815640;29;20058;-79
2022/11/25 07:39:16;;;;;;;15.23;3.50;;;;;;;;;;4823969;29;20114;-80
2022/11/25 07:41:42;;;;;;;14.55;3.92;;;;;;;;;;4839623;29;20533;-79
2022/11/25 07:44:10;;;;;;;15.48;3.75;;;;;;;;;;4831372;29;20082;-79
2022/11/25 07:46:38;;;;;;;11.82;3.90;;;;;;;;;;4836350;29;20126;-80
2022/11/25 07:49:10;;;;;;;13.15;3.53;;;;;;;;;;4839023;29;20146;-80
2022/11/25 07:51:49;;;;;;;11.77;3.80;;;;;;;;;;4838292;29;20054;-80
2022/11/25 07:54:16;;;;;;;12.05;3.72;;;;;;;;;;4837160;29;20146;-81
2022/11/25 07:56:45;;;;;;;11.55;3.53;;;;;;;;;;4841145;29;20149;-79
2022/11/25 07:59:24;;;;;;;11.35;3.70;;;;;;;;;;4827999;29;21045;-79
2022/11/25 08:01:51;;;;;;;13.32;3.67;;;;;;;;;;4815736;29;20518;-79
2022/11/25 08:04:18;;;;;;;11.77;4.38;;;;;;;;;;4834270;29;20096;-78
2022/11/25 08:06:47;;;;;;;12.30;3.80;;;;;;;;;;4831745;29;20063;-78
2022/11/25 08:09:14;;;;;;;11.07;3.83;;;;;;;;;;4821228;29;20148;-78
2022/11/25 08:11:41;;;;;;;13.88;3.80;;;;;;;;;;4822802;29;20065;-80
2022/11/25 08:14:09;;;;;;;11.57;3.35;;;;;;;;;;4816579;29;20107;-79
2022/11/25 08:16:36;;;;;;;9.10;4.15;;;;;;;;;;4830445;29;20385;-79
2022/11/25 08:19:04;;;;;;;12.98;4.00;;;;;;;;;;4833284;29;20060;-79
2022/11/25 08:21:30;;;;;;;9.48;4.00;;;;;;;;;;4823366;29;20149;-77
2022/11/25 08:23:57;;;;;;;9.48;3.70;;;;;;;;;;4819589;29;20062;-82
2022/11/25 08:26:29;;;;;;;14.68;3.95;;;;;;;;;;4821471;29;20602;-82
2022/11/25 08:28:58;;;;;;;12.75;3.90;;;;;;;;;;4820771;29;20098;-80
2022/11/25 08:31:26;;;;;;;10.60;4.00;;;;;;;;;;4817979;29;20063;-79
2022/11/25 08:33:53;;;;;;;14.27;3.90;;;;;;;;;;4836116;29;20812;-79
2022/11/25 08:36:20;;;;;;;12.73;4.22;;;;;;;;;;4816367;29;20137;-79
2022/11/25 08:38:48;;;;;;;9.77;3.92;;;;;;;;;;4832906;29;20074;-79
2022/11/25 08:41:17;;;;;;;10.15;4.00;;;;;;;;;;4820294;29;20058;-81
2022/11/25 08:43:44;;;;;;;9.45;3.45;;;;;;;;;;4819136;29;20058;-78
2022/11/25 08:46:11;;;;;;;13.93;3.53;;;;;;;;;;4817912;29;20091;-78
2022/11/25 08:48:38;;;;;;;18.95;4.05;;;;;;;;;;4835891;29;20058;-82
2022/11/25 08:51:09;;;;;;;11.88;3.78;;;;;;;;;;4818631;29;20069;-81
2022/11/25 08:53:36;;;;;;;13.73;3.85;;;;;;;;;;4819631;29;20066;-80
2022/11/25 08:56:02;;;;;;;13.65;3.50;;;;;;;;;;4809816;29;20060;-81
2022/11/25 08:58:28;;;;;;;10.10;3.40;;;;;;;;;;4832714;29;20089;-80
2022/11/25 09:00:55;;;;;;;10.68;3.70;;;;;;;;;;4817581;29;20892;-79
2022/11/25 09:03:21;;;;;;;14.50;4.00;;;;;;;;;;4837737;29;20065;-79
2022/11/25 09:05:55;;;;;;;9.55;3.25;;;;;;;;;;4821293;29;20055;-80
2022/11/25 09:08:22;;;;;;;13.20;3.92;;;;;;;;;;4825970;29;20054;-78
2022/11/25 09:10:48;;;;;;;12.93;3.92;;;;;;;;;;4815582;29;20083;-78
2022/11/25 09:13:14;;;;;;;13.43;3.50;;;;;;;;;;4835048;29;20694;-80
2022/11/25 09:15:41;;;;;;;15.57;3.42;;;;;;;;;;4824804;29;20059;-80
2022/11/25 09:18:08;;;;;;;8.13;3.17;;;;;;;;;;4819500;29;20065;-81
2022/11/25 09:20:36;;;;;;;9.75;3.40;;;;;;;;;;4835693;29;20058;-79
2022/11/25 09:23:02;;;;;;;11.95;3.63;;;;;;;;;;4815978;29;20063;-78
2022/11/25 09:25:29;;;;;;;12.70;4.32;;;;;;;;;;4835234;29;20066;-80
2022/11/25 09:27:56;;;;;;;8.98;3.10;;;;;;;;;;4812134;29;20101;-80
2022/11/25 09:30:23;;;;;;;14.43;4.03;;;;;;;;;;4818605;29;20832;-80
2022/11/25 09:32:51;;;;;;;8.68;3.53;;;;;;;;;;4828945;29;20050;-83
2022/11/25 09:35:17;;;;;;;9.63;3.17;;;;;;;;;;4815298;29;20064;-80
2022/11/25 09:37:44;;;;;;;11.07;3.72;;;;;;;;;;4831279;29;20058;-79
2022/11/25 09:40:30;;;;;;;8.55;3.45;;;;;;;;;;4837743;29;20049;-82
2022/11/25 09:48:53;;;;;;;9.45;2.88;;;;;;;;;;4829945;29;20058;-82
2022/11/25 09:51:19;;;;;;;8.70;2.83;;;;;;;;;;4835523;29;20074;-81
2022/11/25 09:53:49;;;;;;;10.95;2.95;;;;;;;;;;4837363;29;20049;-80
2022/11/25 09:56:23;;;;;;;7.40;2.80;;;;;;;;;;4842950;29;20058;-82
2022/11/25 09:58:52;;;;;;;10.18;2.70;;;;;;;;;;4838911;29;21270;-80
2022/11/25 10:01:21;;;;;;;10.48;3.22;;;;;;;;;;4833359;29;20043;-80
2022/11/25 10:03:51;;;;;;;11.80;3.33;;;;;;;;;;4830807;29;20059;-80
2022/11/25 10:06:34;;;;;;;9.48;3.10;;;;;;;;;;4814294;29;20058;-82
2022/11/25 10:09:09;;;;;;;7.20;2.80;;;;;;;;;;4818454;29;20061;-79
2022/11/25 10:11:44;;;;;;;11.48;3.22;;;;;;;;;;4835143;29;20445;-79
2022/11/25 10:14:19;;;;;;;11.05;3.03;;;;;;;;;;4827570;29;20088;-79
2022/11/25 10:17:04;;;;;;;7.25;2.60;;;;;;;;;;4828214;29;20170;-80
2022/11/25 10:19:39;;;;;;;8.32;3.08;;;;;;;;;;4820705;29;20985;-81
2022/11/25 10:22:45;;;;;;;10.98;2.78;;;;;;;;;;4813947;29;20066;-81
2022/11/25 10:25:13;;;;;;;6.78;2.67;;;;;;;;;;4797849;29;20870;-81
2022/11/25 10:28:05;;;;;;;12.48;3.35;;;;;;;;;;4797120;29;20526;-81
2022/11/25 10:30:39;;;;;;;14.18;3.40;;;;;;;;;;4797065;29;20537;-80
2022/11/25 10:33:27;;;;;;;12.27;3.35;;;;;;;;;;4819890;29;20058;-80
2022/11/25 10:36:04;;;;;;;8.73;3.08;;;;;;;;;;4817073;29;20062;-81
2022/11/25 10:38:37;;;;;;;9.98;3.25;;;;;;;;;;4838822;29;20061;-80
2022/11/25 10:41:03;;;;;;;10.40;3.15;;;;;;;;;;4836080;29;20054;-80
2022/11/25 10:43:31;;;;;;;10.55;3.38;;;;;;;;;;4818460;29;20103;-80
2022/11/25 10:46:06;;;;;;;10.88;3.22;;;;;;;;;;4834252;29;20085;-81
2022/11/25 10:48:45;;;;;;;9.48;3.28;;;;;;;;;;4820692;29;20603;-80
2022/11/25 10:51:19;;;;;;;13.23;4.07;;;;;;;;;;4837537;29;20038;-81
2022/11/25 10:54:05;;;;;;;9.38;3.60;;;;;;;;;;4829358;29;20062;-80
2022/11/25 10:56:40;;;;;;;9.50;2.92;;;;;;;;;;4834670;29;20816;-80
2022/11/25 10:59:20;;;;;;;13.95;3.10;;;;;;;;;;4820988;29;20133;-80
2022/11/25 11:01:46;;;;;;;15.02;3.45;;;;;;;;;;4837048;29;20115;-80
2022/11/25 11:04:17;;;;;;;11.20;3.30;;;;;;;;;;4832524;29;20069;-80
2022/11/25 11:06:45;;;;;;;11.43;3.20;;;;;;;;;;4827949;29;20580;-80
2022/11/25 11:09:32;;;;;;;12.48;3.40;;;;;;;;;;4819114;29;20065;-81
2022/11/25 11:12:06;;;;;;;17.45;4.15;;;;;;;;;;4834480;29;20518;-80
2022/11/25 11:14:33;;;;;;;15.88;3.95;;;;;;;;;;4813693;29;20097;-79
2022/11/25 11:17:00;;;;;;;12.55;3.50;;;;;;;;;;4818380;29;20111;-80
2022/11/25 11:19:28;;;;;;;12.07;3.63;;;;;;;;;;4833904;29;20059;-80
2022/11/25 11:21:55;;;;;;;13.10;3.40;;;;;;;;;;4830460;29;20058;-81
2022/11/25 11:24:27;;;;;;;10.07;3.13;;;;;;;;;;4823082;29;20149;-79
2022/11/25 11:27:12;;;;;;;16.63;3.65;;;;;;;;;;4833318;29;20061;-80
2022/11/25 11:29:39;;;;;;;9.38;2.85;;;;;;;;;;4832853;29;20593;-80
2022/11/25 11:32:07;;;;;;;13.88;3.17;;;;;;;;;;4829654;29;20062;-80
2022/11/25 11:34:52;;;;;;;13.25;2.92;;;;;;;;;;4816053;29;20141;-79
2022/11/25 11:37:28;;;;;;;12.65;2.72;;;;;;;;;;4815193;29;20058;-79
2022/11/25 11:40:13;;;;;;;13.85;3.45;;;;;;;;;;4833841;29;21126;-80
2022/11/25 11:43:09;;;;;;;14.63;3.17;;;;;;;;;;4817241;29;20088;-80
2022/11/25 11:45:35;;;;;;;11.70;3.20;;;;;;;;;;4765377;29;20113;-80
2022/11/25 11:48:08;;;;;;;13.18;2.72;;;;;;;;;;4811713;29;20065;-81
2022/11/25 11:50:52;;;;;;;13.18;2.78;;;;;;;;;;4810843;29;20066;-81
2022/11/25 11:53:18;;;;;;;10.43;2.25;;;;;;;;;;4835763;29;20828;-80
2022/11/25 11:55:52;;;;;;;11.40;2.70;;;;;;;;;;4828801;29;20098;-79
2022/11/25 11:58:57;;;;;;;12.02;2.90;;;;;;;;;;4816356;29;20148;-79
2022/11/25 12:01:35;;;;;;;12.30;2.35;;;;;;;;;;4828999;29;20055;-78
2022/11/25 12:04:20;;;;;;;10.88;3.03;;;;;;;;;;4824550;29;20093;-80
2022/11/25 12:07:13;;;;;;;13.60;2.47;;;;;;;;;;4832410;29;20065;-81
2022/11/25 12:09:44;;;;;;;12.85;2.42;;;;;;;;;;4834190;29;20114;-81
2022/11/25 12:12:13;;;;;;;9.88;2.33;;;;;;;;;;4817800;29;20123;-81
2022/11/25 12:14:48;;;;;;;8.98;2.17;;;;;;;;;;4817231;29;20062;-80
2022/11/25 12:17:22;;;;;;;13.93;2.33;;;;;;;;;;4826592;29;20054;-80
2022/11/25 12:20:02;;;;;;;8.77;2.08;;;;;;;;;;4811924;29;20062;-80
2022/11/25 12:22:31;;;;;;;9.15;2.10;;;;;;;;;;4853384;29;20556;-82
2022/11/25 12:24:57;;;;;;;7.90;1.88;;;;;;;;;;4838201;29;20100;-78
2022/11/25 12:27:32;;;;;;;16.15;2.78;;;;;;;;;;4812502;29;20069;-78
2022/11/25 12:30:06;;;;;;;12.30;3.00;;;;;;;;;;4834724;29;20062;-82
2022/11/25 12:32:55;;;;;;;16.13;2.60;;;;;;;;;;4819269;29;20152;-80
2022/11/25 12:35:37;;;;;;;10.75;2.42;;;;;;;;;;4820995;29;20061;-80
2022/11/25 12:38:03;;;;;;;11.73;3.03;;;;;;;;;;4837741;29;20061;-81
2022/11/25 12:40:40;;;;;;;12.23;2.20;;;;;;;;;;4834046;29;20066;-81
2022/11/25 12:43:25;;;;;;;12.32;2.47;;;;;;;;;;4834607;29;20562;-79
2022/11/25 12:46:02;;;;;;;8.20;2.08;;;;;;;;;;4833725;29;20046;-79
2022/11/25 12:48:28;;;;;;;11.48;2.30;;;;;;;;;;4839398;29;20275;-80
2022/11/25 12:51:04;;;;;;;11.88;1.65;;;;;;;;;;4840161;29;20065;-80
2022/11/25 12:53:31;;;;;;;8.30;2.05;;;;;;;;;;4852205;29;20088;-80
2022/11/25 12:56:03;;;;;;;18.20;2.50;;;;;;;;;;4835824;29;20093;-80
2022/11/25 12:58:29;;;;;;;10.25;1.90;;;;;;;;;;4827501;29;20066;-79
2022/11/25 13:01:14;;;;;;;11.18;1.90;;;;;;;;;;4835028;29;20064;-78
2022/11/25 13:03:44;;;;;;;12.07;2.13;;;;;;;;;;4831884;29;20525;-78
2022/11/25 13:06:37;;;;;;;11.13;1.98;;;;;;;;;;4829738;29;20419;-81
2022/11/25 13:09:06;;;;;;;10.60;1.83;;;;;;;;;;4824546;29;20057;-79
2022/11/25 13:11:33;;;;;;;9.10;1.52;;;;;;;;;;4830505;29;20057;-78
2022/11/25 13:14:04;;;;;;;10.98;2.40;;;;;;;;;;4835213;29;20058;-77
2022/11/25 13:16:31;;;;;;;9.80;2.10;;;;;;;;;;4832366;29;20123;-76
2022/11/25 13:18:58;;;;;;;10.23;2.38;;;;;;;;;;4831305;29;20055;-78
2022/11/25 13:21:26;;;;;;;9.60;2.00;;;;;;;;;;4811166;29;20074;-80
2022/11/25 13:23:55;;;;;;;12.35;2.05;;;;;;;;;;4818136;29;20144;-78
2022/11/25 13:26:27;;;;;;;9.07;1.75;;;;;;;;;;4835479;29;20579;-78
2022/11/25 13:28:54;;;;;;;12.85;1.90;;;;;;;;;;4834052;29;20062;-80
2022/11/25 13:31:21;;;;;;;10.02;2.25;;;;;;;;;;4815967;29;20059;-80
2022/11/25 13:33:48;;;;;;;8.57;1.63;;;;;;;;;;4834921;29;20111;-78
2022/11/25 13:36:16;;;;;;;12.70;2.35;;;;;;;;;;4831055;29;20123;-80
2022/11/25 13:38:49;;;;;;;10.90;2.00;;;;;;;;;;4832459;29;20062;-78
2022/11/25 13:41:18;;;;;;;13.05;1.88;;;;;;;;;;4834407;29;20058;-81
2022/11/25 13:44:05;;;;;;;9.57;2.15;;;;;;;;;;4817576;29;20189;-82
2022/11/25 13:46:36;;;;;;;10.25;1.70;;;;;;;;;;4834563;29;20522;-79
2022/11/25 13:49:03;;;;;;;18.15;2.88;;;;;;;;;;4828297;29;20090;-83
2022/11/25 13:51:30;;;;;;;11.95;2.22;;;;;;;;;;4817285;29;20066;-76
2022/11/25 13:53:59;;;;;;;11.30;1.90;;;;;;;;;;4823367;29;20058;-78
2022/11/25 13:56:25;;;;;;;12.40;2.05;;;;;;;;;;4826426;29;20066;-77
2022/11/25 13:59:10;;;;;;;10.82;1.58;;;;;;;;;;4827308;29;20050;-79
2022/11/25 14:01:46;;;;;;;15.85;2.28;;;;;;;;;;4824827;29;20135;-77
2022/11/25 14:04:14;;;;;;;13.90;2.20;;;;;;;;;;4827328;29;20047;-78
2022/11/25 14:06:41;;;;;;;11.40;1.80;;;;;;;;;;4835166;29;20521;-77
2022/11/25 14:09:15;;;;;;;12.13;2.50;;;;;;;;;;4817845;29;20063;-77
2022/11/25 14:11:57;;;;;;;15.30;2.38;;;;;;;;;;4831605;29;20089;-78
2022/11/25 14:14:37;;;;;;;12.60;2.20;;;;;;;;;;4807812;29;20147;-78
2022/11/25 14:17:15;;;;;;;11.30;2.65;;;;;;;;;;4827989;29;20144;-76
2022/11/25 14:20:03;;;;;;;11.38;2.75;;;;;;;;;;4832736;29;20089;-78
2022/11/25 14:22:50;;;;;;;13.98;2.47;;;;;;;;;;4833190;29;20122;-77
2022/11/25 14:25:25;;;;;;;9.15;2.30;;;;;;;;;;4908133;23;20052;-78
2022/11/25 14:27:59;;;;;;;11.85;2.25;;;;;;;;;;4906786;29;20060;-78
2022/11/25 14:30:29;;;;;;;13.27;2.50;;;;;;;;;;4885862;29;20089;-77
2022/11/25 14:32:59;;;;;;;10.73;2.35;;;;;;;;;;4882077;29;20049;-77
2022/11/25 14:35:29;;;;;;;17.07;2.47;;;;;;;;;;4892856;29;20068;-77
2022/11/25 14:37:58;;;;;;;13.57;2.35;;;;;;;;;;4868441;29;20350;-78
2022/11/25 14:40:28;;;;;;;14.27;2.42;;;;;;;;;;4886005;29;20061;-78
2022/11/25 14:43:01;;;;;;;10.07;2.13;;;;;;;;;;4869555;29;20096;-78
2022/11/25 14:45:29;;;;;;;14.25;2.22;;;;;;;;;;4869219;29;20546;-78
2022/11/25 14:47:55;;;;;;;11.85;2.25;;;;;;;;;;4888796;29;20045;-78
2022/11/25 14:50:22;;;;;;;21.08;5.65;;;;;;;;;;4878492;29;20139;-77
2022/11/25 14:53:06;;;;;;;22.52;9.85;;;;;;;;;;4881691;29;20048;-78
2022/11/25 14:55:33;;;;;;;19.02;6.50;;;;;;;;;;4871320;29;20083;-78
2022/11/25 14:57:59;;;;;;;22.10;4.40;;;;;;;;;;4870064;29;20185;-77
2022/11/25 15:00:26;;;;;;;16.63;2.75;;;;;;;;;;4883217;29;20808;-77
2022/11/25 15:02:57;;;;;;;14.70;2.75;;;;;;;;;;4870628;29;20065;-78